Time;durP1;ratioP1;P1;durP2;ratioP2;P2;SDS_P1;SDS_P2;PMS_P1;PMS_P2;Temp;Humidity;BMP_temperature;BMP_pressure;BME280_temperature;BME280_humidity;BME280_pressure;Samples;Min_cycle;Max_cycle;Signal;HPM_P1;HPM_P2
2022/01/08 00:01:11;;;;;;;1.80;1.70;;;;;;;;;;5004087;28;20263;-60
2022/01/08 00:03:38;;;;;;;1.60;1.50;;;;;;;;;;4994205;28;20214;-60
2022/01/08 00:06:07;;;;;;;2.33;2.03;;;;;;;;;;4986346;28;20227;-60
2022/01/08 00:08:34;;;;;;;3.57;2.07;;;;;;;;;;4997540;28;20278;-60
2022/01/08 00:11:01;;;;;;;4.73;2.47;;;;;;;;;;5004658;28;20209;-60
2022/01/08 00:13:28;;;;;;;1.30;1.30;;;;;;;;;;5005467;28;20323;-60
2022/01/08 00:15:55;;;;;;;2.10;1.07;;;;;;;;;;5002528;28;20296;-60
2022/01/08 00:18:23;;;;;;;2.47;1.37;;;;;;;;;;5005297;28;20220;-60
2022/01/08 00:20:50;;;;;;;1.10;1.10;;;;;;;;;;5004999;28;20215;-60
2022/01/08 00:23:18;;;;;;;1.47;1.37;;;;;;;;;;4994075;28;20629;-60
2022/01/08 00:25:45;;;;;;;0.77;0.77;;;;;;;;;;4987019;28;20357;-60
2022/01/08 00:28:12;;;;;;;2.50;1.70;;;;;;;;;;4988573;28;20228;-60
2022/01/08 00:30:39;;;;;;;1.20;0.80;;;;;;;;;;5002452;28;20219;-61
2022/01/08 00:33:06;;;;;;;1.13;1.10;;;;;;;;;;5005690;28;20212;-60
2022/01/08 00:35:34;;;;;;;2.80;1.80;;;;;;;;;;5005941;28;20211;-60
2022/01/08 00:38:01;;;;;;;1.20;1.20;;;;;;;;;;4988899;28;20727;-60
2022/01/08 00:40:29;;;;;;;1.50;1.03;;;;;;;;;;4986402;28;20676;-60
2022/01/08 00:42:56;;;;;;;1.33;0.90;;;;;;;;;;5008552;28;20212;-60
2022/01/08 00:45:24;;;;;;;0.97;0.97;;;;;;;;;;5009295;28;20298;-60
2022/01/08 00:47:51;;;;;;;2.77;0.83;;;;;;;;;;5013221;28;20270;-60
2022/01/08 00:50:18;;;;;;;1.27;0.97;;;;;;;;;;5009112;28;20294;-60
2022/01/08 00:52:45;;;;;;;1.17;0.87;;;;;;;;;;5008663;28;20251;-60
2022/01/08 00:55:12;;;;;;;1.60;0.87;;;;;;;;;;4997969;28;20778;-60
2022/01/08 00:57:41;;;;;;;0.77;0.70;;;;;;;;;;5007075;28;20295;-60
2022/01/08 01:00:09;;;;;;;1.47;1.37;;;;;;;;;;5007684;28;20213;-60
2022/01/08 01:02:36;;;;;;;0.80;0.80;;;;;;;;;;5008756;28;20216;-60
2022/01/08 01:05:03;;;;;;;1.20;1.10;;;;;;;;;;5008715;28;20549;-60
2022/01/08 01:07:30;;;;;;;3.07;1.00;;;;;;;;;;5007873;28;20205;-60
2022/01/08 01:09:57;;;;;;;1.10;1.10;;;;;;;;;;5008987;28;20228;-60
2022/01/08 01:12:25;;;;;;;1.10;1.10;;;;;;;;;;5003115;28;20925;-60
2022/01/08 01:14:53;;;;;;;1.10;1.10;;;;;;;;;;5001864;28;20773;-60
2022/01/08 01:17:20;;;;;;;0.83;0.80;;;;;;;;;;5006293;28;20221;-60
2022/01/08 01:19:48;;;;;;;0.73;0.73;;;;;;;;;;4995220;28;20667;-60
2022/01/08 01:22:18;;;;;;;0.90;0.90;;;;;;;;;;4999632;28;20571;-61
2022/01/08 01:24:46;;;;;;;1.07;1.07;;;;;;;;;;5003225;28;20675;-60
2022/01/08 01:30:14;;;;;;;1.00;0.90;;;;;;;;;;4967867;28;20719;-60
2022/01/08 01:41:23;;;;;;;0.97;0.80;;;;;;;;;;4983508;28;20210;-60
2022/01/08 01:49:22;;;;;;;1.17;1.17;;;;;;;;;;5002507;28;20298;-61
2022/01/08 01:51:49;;;;;;;1.00;1.00;;;;;;;;;;5000958;28;20212;-60
2022/01/08 01:54:16;;;;;;;1.20;1.20;;;;;;;;;;5000445;28;20225;-60
2022/01/08 01:56:43;;;;;;;1.13;1.13;;;;;;;;;;5002359;28;20662;-60
2022/01/08 01:59:10;;;;;;;1.77;1.17;;;;;;;;;;5002749;28;20262;-60
2022/01/08 02:01:39;;;;;;;1.00;1.00;;;;;;;;;;5001978;28;20628;-60
2022/01/08 02:04:06;;;;;;;1.40;1.27;;;;;;;;;;5001305;28;20214;-60
2022/01/08 02:06:33;;;;;;;1.13;1.03;;;;;;;;;;5001352;28;20666;-60
2022/01/08 02:09:00;;;;;;;2.60;1.27;;;;;;;;;;5000538;28;20215;-60
2022/01/08 02:11:27;;;;;;;2.80;1.10;;;;;;;;;;5002146;28;20197;-60
2022/01/08 02:14:02;;;;;;;1.13;1.10;;;;;;;;;;4999737;28;20236;-60
2022/01/08 02:19:17;;;;;;;1.10;1.07;;;;;;;;;;4997882;28;20204;-61
2022/01/08 02:21:49;;;;;;;0.93;0.93;;;;;;;;;;5000867;28;20203;-60
2022/01/08 02:24:16;;;;;;;1.13;1.13;;;;;;;;;;5000551;28;20209;-60
2022/01/08 02:26:43;;;;;;;1.43;1.33;;;;;;;;;;4999796;28;20612;-60
2022/01/08 02:29:11;;;;;;;0.90;0.90;;;;;;;;;;5001354;28;20200;-61
2022/01/08 02:31:38;;;;;;;1.53;1.43;;;;;;;;;;5000922;28;20964;-60
2022/01/08 02:34:06;;;;;;;1.40;1.27;;;;;;;;;;5001427;28;20228;-61
2022/01/08 02:36:33;;;;;;;1.10;1.00;;;;;;;;;;5001203;28;20239;-60
2022/01/08 02:39:02;;;;;;;0.90;0.90;;;;;;;;;;4997813;28;20208;-60
2022/01/08 02:41:29;;;;;;;1.20;1.03;;;;;;;;;;5000525;28;20201;-60
2022/01/08 02:43:56;;;;;;;1.70;0.80;;;;;;;;;;5001106;28;20205;-60
2022/01/08 02:46:23;;;;;;;0.90;0.90;;;;;;;;;;4998337;28;20584;-60
2022/01/08 02:48:50;;;;;;;0.83;0.83;;;;;;;;;;5000812;28;20236;-60
2022/01/08 02:51:17;;;;;;;1.70;1.50;;;;;;;;;;5003351;28;20625;-60
2022/01/08 02:53:44;;;;;;;0.90;0.90;;;;;;;;;;5001187;28;20244;-60
2022/01/08 02:56:13;;;;;;;1.07;1.07;;;;;;;;;;5001076;28;20212;-60
2022/01/08 02:58:40;;;;;;;1.57;1.47;;;;;;;;;;5000255;28;20212;-60
2022/01/08 03:01:07;;;;;;;1.00;1.00;;;;;;;;;;5000081;28;20213;-60
2022/01/08 03:03:34;;;;;;;1.23;0.70;;;;;;;;;;4998389;28;20209;-60
2022/01/08 03:06:01;;;;;;;1.60;0.60;;;;;;;;;;5002597;28;20209;-60
2022/01/08 03:08:28;;;;;;;1.33;1.27;;;;;;;;;;4999988;28;20262;-60
2022/01/08 03:10:55;;;;;;;0.93;0.93;;;;;;;;;;5000564;28;20271;-60
2022/01/08 03:13:24;;;;;;;2.00;1.40;;;;;;;;;;5000058;28;20258;-60
2022/01/08 03:15:51;;;;;;;1.10;1.10;;;;;;;;;;4999920;28;20223;-60
2022/01/08 03:18:18;;;;;;;1.80;0.93;;;;;;;;;;4998335;28;20205;-60
2022/01/08 03:20:49;;;;;;;0.53;0.40;;;;;;;;;;5000353;28;20221;-60
2022/01/08 03:23:17;;;;;;;0.60;0.60;;;;;;;;;;5001128;28;20206;-60
2022/01/08 03:25:45;;;;;;;0.70;0.70;;;;;;;;;;5000526;28;20294;-61
2022/01/08 03:28:12;;;;;;;0.50;0.50;;;;;;;;;;4998104;28;20230;-60
2022/01/08 03:30:41;;;;;;;0.67;0.50;;;;;;;;;;4997809;28;20250;-61
2022/01/08 03:33:08;;;;;;;0.30;0.30;;;;;;;;;;4999720;28;20245;-61
2022/01/08 03:35:36;;;;;;;0.40;0.40;;;;;;;;;;4999025;28;20643;-61
2022/01/08 03:38:03;;;;;;;0.57;0.43;;;;;;;;;;5000284;28;20206;-61
2022/01/08 03:40:30;;;;;;;0.67;0.60;;;;;;;;;;4999342;28;20674;-60
2022/01/08 03:42:57;;;;;;;0.90;0.90;;;;;;;;;;4998620;28;20211;-60
2022/01/08 03:45:24;;;;;;;0.40;0.40;;;;;;;;;;4999577;28;20208;-60
2022/01/08 03:48:18;;;;;;;0.73;0.73;;;;;;;;;;4998265;28;20206;-61
2022/01/08 03:50:46;;;;;;;0.40;0.40;;;;;;;;;;4999572;28;20727;-60
2022/01/08 03:53:13;;;;;;;0.33;0.33;;;;;;;;;;5000975;28;20299;-60
2022/01/08 03:55:40;;;;;;;0.17;0.17;;;;;;;;;;4997852;28;20229;-60
2022/01/08 03:58:07;;;;;;;0.30;0.30;;;;;;;;;;4997210;28;20203;-61
2022/01/08 04:00:35;;;;;;;0.57;0.57;;;;;;;;;;4999158;28;20285;-60
2022/01/08 04:03:03;;;;;;;0.33;0.33;;;;;;;;;;4999682;28;20210;-61
2022/01/08 04:05:30;;;;;;;0.43;0.43;;;;;;;;;;4999802;28;20197;-61
2022/01/08 04:07:57;;;;;;;0.43;0.43;;;;;;;;;;4999241;28;20206;-60
2022/01/08 04:10:24;;;;;;;0.20;0.20;;;;;;;;;;5000517;28;20261;-60
2022/01/08 04:12:55;;;;;;;0.20;0.20;;;;;;;;;;4998027;28;20216;-60
2022/01/08 04:15:37;;;;;;;1.70;0.40;;;;;;;;;;4999817;28;20231;-61
2022/01/08 04:18:05;;;;;;;0.50;0.50;;;;;;;;;;5000426;28;20206;-60
2022/01/08 04:20:34;;;;;;;0.27;0.27;;;;;;;;;;5004845;28;20545;-61
2022/01/08 04:23:02;;;;;;;0.27;0.27;;;;;;;;;;5002823;28;20217;-61
2022/01/08 04:25:30;;;;;;;0.30;0.20;;;;;;;;;;5002333;28;20746;-61
2022/01/08 04:27:57;;;;;;;0.20;0.20;;;;;;;;;;5001464;28;20232;-61
2022/01/08 04:30:24;;;;;;;0.37;0.37;;;;;;;;;;5001522;28;20213;-61
2022/01/08 04:32:51;;;;;;;0.30;0.30;;;;;;;;;;5002200;28;20210;-61
2022/01/08 04:35:19;;;;;;;0.40;0.40;;;;;;;;;;5005232;28;20223;-61
2022/01/08 04:37:46;;;;;;;0.30;0.30;;;;;;;;;;5001207;28;20641;-61
2022/01/08 04:40:14;;;;;;;0.23;0.23;;;;;;;;;;5003652;28;20206;-61
2022/01/08 04:42:41;;;;;;;0.20;0.20;;;;;;;;;;5003821;28;20210;-61
2022/01/08 04:45:08;;;;;;;0.40;0.40;;;;;;;;;;5003109;28;20201;-60
2022/01/08 04:47:35;;;;;;;0.30;0.30;;;;;;;;;;5002594;28;20209;-61
2022/01/08 04:50:02;;;;;;;0.40;0.40;;;;;;;;;;5002490;28;20225;-61
2022/01/08 04:52:31;;;;;;;0.33;0.30;;;;;;;;;;5004539;28;20248;-61
2022/01/08 04:54:58;;;;;;;0.20;0.20;;;;;;;;;;5001324;28;20303;-61
2022/01/08 04:57:25;;;;;;;0.30;0.20;;;;;;;;;;5001159;28;20209;-60
2022/01/08 04:59:52;;;;;;;0.27;0.27;;;;;;;;;;5004143;28;20203;-61
2022/01/08 05:02:19;;;;;;;0.20;0.20;;;;;;;;;;5011472;28;20500;-61
2022/01/08 05:04:46;;;;;;;0.30;0.30;;;;;;;;;;5008650;28;20261;-61
2022/01/08 05:07:13;;;;;;;0.30;0.30;;;;;;;;;;5012462;28;20673;-61
2022/01/08 05:09:41;;;;;;;0.30;0.30;;;;;;;;;;5012687;28;20214;-60
2022/01/08 05:12:09;;;;;;;0.37;0.37;;;;;;;;;;5012120;28;20234;-61
2022/01/08 05:14:36;;;;;;;0.30;0.30;;;;;;;;;;5012499;28;20649;-60
2022/01/08 05:17:28;;;;;;;0.10;0.10;;;;;;;;;;5012175;28;20268;-61
2022/01/08 05:19:58;;;;;;;0.20;0.20;;;;;;;;;;5006003;28;20213;-60
2022/01/08 05:22:28;;;;;;;0.00;0.00;;;;;;;;;;5012164;28;20679;-61
2022/01/08 05:24:57;;;;;;;0.20;0.20;;;;;;;;;;5012411;28;20208;-60
2022/01/08 05:27:24;;;;;;;0.30;0.30;;;;;;;;;;5011605;28;20203;-61
2022/01/08 05:29:52;;;;;;;0.10;0.10;;;;;;;;;;5011762;28;20214;-61
2022/01/08 05:32:20;;;;;;;0.20;0.20;;;;;;;;;;5011852;28;20281;-60
2022/01/08 05:34:48;;;;;;;0.10;0.10;;;;;;;;;;5011862;28;20239;-61
2022/01/08 05:37:15;;;;;;;0.37;0.10;;;;;;;;;;5008846;28;20230;-61
2022/01/08 05:39:42;;;;;;;0.00;0.00;;;;;;;;;;5009503;28;20215;-61
2022/01/08 05:42:11;;;;;;;0.10;0.10;;;;;;;;;;5009219;28;21446;-61
2022/01/08 05:44:38;;;;;;;0.10;0.10;;;;;;;;;;5010201;28;20200;-61
2022/01/08 05:47:22;;;;;;;0.10;0.10;;;;;;;;;;5010868;28;20270;-61
2022/01/08 05:49:49;;;;;;;0.30;0.30;;;;;;;;;;5007473;28;20237;-61
2022/01/08 05:52:16;;;;;;;0.73;0.40;;;;;;;;;;5007537;28;20235;-61
2022/01/08 05:54:43;;;;;;;1.33;0.33;;;;;;;;;;5010040;28;20557;-61
2022/01/08 05:57:12;;;;;;;0.63;0.30;;;;;;;;;;5009233;28;20266;-61
2022/01/08 05:59:39;;;;;;;1.10;0.40;;;;;;;;;;5009286;28;20635;-61
2022/01/08 06:02:08;;;;;;;0.10;0.10;;;;;;;;;;5009818;28;20263;-61
2022/01/08 06:04:35;;;;;;;0.23;0.23;;;;;;;;;;4991604;28;20213;-61
2022/01/08 06:07:02;;;;;;;0.10;0.10;;;;;;;;;;4998678;28;20204;-61
2022/01/08 06:09:29;;;;;;;0.30;0.30;;;;;;;;;;5010268;28;20204;-61
2022/01/08 06:11:56;;;;;;;0.20;0.20;;;;;;;;;;5005646;28;20254;-61
2022/01/08 06:14:25;;;;;;;0.20;0.20;;;;;;;;;;5008875;28;21026;-60
2022/01/08 06:16:52;;;;;;;0.50;0.50;;;;;;;;;;5008254;28;20645;-60
2022/01/08 06:19:20;;;;;;;0.70;0.60;;;;;;;;;;5009631;28;20706;-61
2022/01/08 06:21:47;;;;;;;1.03;0.70;;;;;;;;;;5008198;28;20359;-60
2022/01/08 06:24:14;;;;;;;0.70;0.70;;;;;;;;;;5002771;28;20220;-60
2022/01/08 06:26:41;;;;;;;0.87;0.87;;;;;;;;;;4990995;28;20259;-60
2022/01/08 06:29:08;;;;;;;3.37;1.20;;;;;;;;;;5007571;28;20207;-61
2022/01/08 06:31:36;;;;;;;1.03;0.83;;;;;;;;;;5008578;28;20209;-60
2022/01/08 06:34:04;;;;;;;0.77;0.77;;;;;;;;;;5009500;28;20212;-60
2022/01/08 06:36:31;;;;;;;2.07;0.80;;;;;;;;;;5009820;28;20698;-61
2022/01/08 06:39:01;;;;;;;0.77;0.70;;;;;;;;;;5010009;28;20215;-61
2022/01/08 06:41:29;;;;;;;1.63;0.87;;;;;;;;;;5009661;28;20216;-60
2022/01/08 06:43:56;;;;;;;0.90;0.83;;;;;;;;;;5010489;28;20214;-61
2022/01/08 06:46:23;;;;;;;1.10;1.10;;;;;;;;;;5010007;28;20315;-60
2022/01/08 06:48:52;;;;;;;1.20;1.13;;;;;;;;;;5010152;28;20299;-61
2022/01/08 06:51:19;;;;;;;1.50;1.40;;;;;;;;;;5010220;28;20824;-61
2022/01/08 06:53:46;;;;;;;1.60;0.83;;;;;;;;;;5010401;28;20293;-61
2022/01/08 06:56:13;;;;;;;0.40;0.40;;;;;;;;;;5010003;28;20236;-60
2022/01/08 06:58:41;;;;;;;0.50;0.50;;;;;;;;;;5010421;28;20679;-61
2022/01/08 07:01:08;;;;;;;0.60;0.60;;;;;;;;;;5010452;28;20215;-60
2022/01/08 07:03:35;;;;;;;1.00;0.67;;;;;;;;;;5009392;28;20212;-60
2022/01/08 07:06:03;;;;;;;0.87;0.87;;;;;;;;;;5009600;28;20204;-61
2022/01/08 07:08:31;;;;;;;1.37;1.00;;;;;;;;;;5007750;28;20254;-61
2022/01/08 07:10:58;;;;;;;0.83;0.83;;;;;;;;;;5009755;28;20299;-60
2022/01/08 07:13:25;;;;;;;0.60;0.60;;;;;;;;;;5009857;28;20211;-61
2022/01/08 07:15:52;;;;;;;1.30;1.20;;;;;;;;;;5009812;28;20702;-60
2022/01/08 07:18:19;;;;;;;0.90;0.90;;;;;;;;;;5009540;28;20559;-61
2022/01/08 07:20:46;;;;;;;1.10;1.10;;;;;;;;;;5009823;28;20557;-61
2022/01/08 07:23:14;;;;;;;1.93;0.93;;;;;;;;;;5010141;28;20208;-61
2022/01/08 07:25:41;;;;;;;1.03;1.03;;;;;;;;;;5009695;28;20206;-60
2022/01/08 07:28:08;;;;;;;4.23;1.47;;;;;;;;;;5009565;28;20679;-61
2022/01/08 07:30:35;;;;;;;1.53;1.20;;;;;;;;;;5009581;28;20211;-61
2022/01/08 07:33:02;;;;;;;2.37;1.97;;;;;;;;;;5009675;28;20211;-61
2022/01/08 07:35:29;;;;;;;2.30;2.20;;;;;;;;;;5009365;28;20224;-60
2022/01/08 07:37:56;;;;;;;4.30;2.93;;;;;;;;;;5009617;28;20269;-59
2022/01/08 07:40:25;;;;;;;5.97;2.40;;;;;;;;;;5009475;28;20258;-60
2022/01/08 07:42:52;;;;;;;5.53;1.27;;;;;;;;;;5009678;28;20226;-60
2022/01/08 07:45:20;;;;;;;2.90;1.70;;;;;;;;;;5009502;28;20226;-61
2022/01/08 07:47:47;;;;;;;5.30;3.30;;;;;;;;;;5009399;28;20875;-60
2022/01/08 07:50:15;;;;;;;5.47;3.80;;;;;;;;;;5009018;28;20239;-60
2022/01/08 07:52:43;;;;;;;4.47;2.90;;;;;;;;;;5009211;28;20278;-60
2022/01/08 07:55:10;;;;;;;4.57;2.30;;;;;;;;;;5009418;28;20658;-61
2022/01/08 07:57:39;;;;;;;5.03;3.30;;;;;;;;;;5009271;28;20208;-60
2022/01/08 08:00:06;;;;;;;6.47;3.83;;;;;;;;;;5002102;28;20679;-60
2022/01/08 08:02:33;;;;;;;1.70;1.57;;;;;;;;;;5008198;28;20696;-60
2022/01/08 08:05:00;;;;;;;1.43;1.33;;;;;;;;;;5009368;28;20250;-61
2022/01/08 08:07:29;;;;;;;3.40;1.73;;;;;;;;;;5009170;28;20617;-60
2022/01/08 08:09:56;;;;;;;2.20;1.40;;;;;;;;;;5008125;28;20680;-60
2022/01/08 08:12:23;;;;;;;1.43;1.33;;;;;;;;;;5009183;28;20238;-60
2022/01/08 08:14:51;;;;;;;1.37;1.37;;;;;;;;;;5008966;28;20215;-60
2022/01/08 08:17:18;;;;;;;1.03;1.03;;;;;;;;;;5008907;28;20263;-61
2022/01/08 08:19:46;;;;;;;3.03;1.30;;;;;;;;;;5008638;28;20210;-60
2022/01/08 08:22:13;;;;;;;2.90;1.70;;;;;;;;;;5008702;28;20256;-60
2022/01/08 08:24:40;;;;;;;2.93;2.27;;;;;;;;;;5009159;28;20627;-61
2022/01/08 08:27:07;;;;;;;1.63;1.53;;;;;;;;;;5009197;28;20208;-61
2022/01/08 08:29:34;;;;;;;3.03;1.90;;;;;;;;;;5008805;28;20207;-60
2022/01/08 08:32:02;;;;;;;1.77;1.47;;;;;;;;;;5008777;28;20216;-60
2022/01/08 08:34:29;;;;;;;2.37;1.60;;;;;;;;;;5009136;28;20215;-60
2022/01/08 08:36:56;;;;;;;1.97;1.77;;;;;;;;;;5009090;28;20223;-61
2022/01/08 08:39:23;;;;;;;8.20;2.03;;;;;;;;;;5008459;28;20204;-61
2022/01/08 08:41:50;;;;;;;2.90;1.80;;;;;;;;;;5008658;28;20208;-61
2022/01/08 08:44:17;;;;;;;3.37;2.20;;;;;;;;;;5008226;28;20214;-61
2022/01/08 08:46:44;;;;;;;3.10;2.30;;;;;;;;;;5009351;28;20220;-61
2022/01/08 08:49:16;;;;;;;2.23;2.10;;;;;;;;;;5008254;28;20265;-61
2022/01/08 08:51:43;;;;;;;3.47;2.17;;;;;;;;;;5007929;28;20211;-61
2022/01/08 08:54:10;;;;;;;1.50;1.30;;;;;;;;;;5009135;28;20725;-60
2022/01/08 08:56:38;;;;;;;2.00;1.70;;;;;;;;;;5008719;28;20231;-61
2022/01/08 08:59:05;;;;;;;1.70;1.30;;;;;;;;;;5008952;28;20212;-61
2022/01/08 09:01:32;;;;;;;1.23;1.13;;;;;;;;;;5008413;28;20213;-61
2022/01/08 09:03:59;;;;;;;1.40;1.30;;;;;;;;;;5011211;28;20224;-60
2022/01/08 09:06:35;;;;;;;1.87;0.83;;;;;;;;;;5011471;28;20212;-61
2022/01/08 09:09:02;;;;;;;5.33;1.07;;;;;;;;;;5010983;28;20200;-61
2022/01/08 09:11:29;;;;;;;0.70;0.70;;;;;;;;;;5010903;28;20663;-61
2022/01/08 09:13:56;;;;;;;3.27;2.20;;;;;;;;;;5011515;28;20265;-61
2022/01/08 09:16:23;;;;;;;9.50;4.20;;;;;;;;;;5010355;28;20883;-61
2022/01/08 09:18:51;;;;;;;8.50;1.60;;;;;;;;;;5007373;28;20212;-60
2022/01/08 09:21:18;;;;;;;0.73;0.73;;;;;;;;;;5008727;28;20213;-61
2022/01/08 09:23:46;;;;;;;0.83;0.80;;;;;;;;;;4999111;28;20901;-61
2022/01/08 09:26:13;;;;;;;0.70;0.70;;;;;;;;;;4998867;28;20208;-60
2022/01/08 09:28:40;;;;;;;0.60;0.57;;;;;;;;;;5002782;28;20878;-61
2022/01/08 09:31:08;;;;;;;1.17;1.00;;;;;;;;;;5007952;28;20674;-61
2022/01/08 09:33:36;;;;;;;5.37;2.83;;;;;;;;;;5010839;28;20264;-61
2022/01/08 09:36:03;;;;;;;7.00;1.87;;;;;;;;;;4993144;28;20655;-62
2022/01/08 09:38:30;;;;;;;2.40;1.77;;;;;;;;;;5011211;28;20223;-60
2022/01/08 09:40:58;;;;;;;1.47;1.47;;;;;;;;;;5011391;28;20218;-60
2022/01/08 09:43:25;;;;;;;1.00;0.97;;;;;;;;;;5002275;28;20264;-60
2022/01/08 09:45:52;;;;;;;6.33;1.30;;;;;;;;;;4997798;28;20262;-60
2022/01/08 09:48:20;;;;;;;3.83;1.47;;;;;;;;;;5004258;28;20291;-59
2022/01/08 09:50:47;;;;;;;1.63;1.53;;;;;;;;;;5002277;28;20240;-60
2022/01/08 09:53:14;;;;;;;7.13;1.23;;;;;;;;;;5003815;28;20251;-60
2022/01/08 09:55:41;;;;;;;1.47;1.37;;;;;;;;;;5010688;28;20347;-59
2022/01/08 09:58:11;;;;;;;1.47;1.37;;;;;;;;;;4999983;28;20228;-60
2022/01/08 10:00:38;;;;;;;1.00;1.00;;;;;;;;;;5010285;28;20734;-60
2022/01/08 10:03:15;;;;;;;1.60;1.20;;;;;;;;;;5001127;28;20290;-59
2022/01/08 10:05:46;;;;;;;0.80;0.80;;;;;;;;;;5010172;28;20205;-59
2022/01/08 10:08:15;;;;;;;5.10;1.20;;;;;;;;;;5008085;28;20672;-59
2022/01/08 10:10:42;;;;;;;1.23;0.83;;;;;;;;;;5010609;28;20299;-60
2022/01/08 10:13:22;;;;;;;0.70;0.70;;;;;;;;;;5010669;28;20216;-61
2022/01/08 10:18:35;;;;;;;1.87;1.33;;;;;;;;;;5001692;28;20767;-61
2022/01/08 10:21:15;;;;;;;1.27;1.17;;;;;;;;;;5009441;28;20204;-60
2022/01/08 10:23:43;;;;;;;3.33;1.47;;;;;;;;;;5010446;28;20214;-60
2022/01/08 10:26:13;;;;;;;0.70;0.70;;;;;;;;;;5003568;28;20292;-61
2022/01/08 10:28:42;;;;;;;1.30;1.20;;;;;;;;;;5005923;28;20237;-61
2022/01/08 10:31:10;;;;;;;1.10;0.73;;;;;;;;;;5010370;28;20274;-60
2022/01/08 10:33:37;;;;;;;1.07;1.00;;;;;;;;;;5009711;28;20217;-60
2022/01/08 10:36:05;;;;;;;3.53;1.30;;;;;;;;;;5009790;28;20205;-60
2022/01/08 10:38:32;;;;;;;1.87;0.80;;;;;;;;;;5008633;28;20213;-61
2022/01/08 10:40:59;;;;;;;1.17;1.17;;;;;;;;;;5010252;28;20255;-61
2022/01/08 10:43:27;;;;;;;1.97;1.47;;;;;;;;;;5010834;28;21032;-60
2022/01/08 10:45:56;;;;;;;1.80;0.80;;;;;;;;;;5007666;28;20214;-61
2022/01/08 10:48:28;;;;;;;1.10;1.10;;;;;;;;;;5010101;28;20228;-60
2022/01/08 10:50:55;;;;;;;0.80;0.80;;;;;;;;;;5009290;28;20236;-60
2022/01/08 10:53:22;;;;;;;1.40;1.33;;;;;;;;;;5008200;28;20307;-61
2022/01/08 10:55:49;;;;;;;2.40;0.90;;;;;;;;;;5005577;28;20208;-60
2022/01/08 10:58:19;;;;;;;0.83;0.70;;;;;;;;;;5008936;28;20229;-60
2022/01/08 11:00:46;;;;;;;0.50;0.50;;;;;;;;;;4997914;28;20690;-61
2022/01/08 11:03:14;;;;;;;0.80;0.80;;;;;;;;;;5008842;28;20217;-61
2022/01/08 11:06:01;;;;;;;0.50;0.50;;;;;;;;;;5009086;28;20216;-61
2022/01/08 11:08:28;;;;;;;0.80;0.80;;;;;;;;;;5005090;28;20263;-61
2022/01/08 11:10:55;;;;;;;1.13;1.03;;;;;;;;;;4988451;28;20269;-61
2022/01/08 11:13:25;;;;;;;6.83;0.80;;;;;;;;;;4994470;28;20209;-61
2022/01/08 11:15:52;;;;;;;1.90;0.70;;;;;;;;;;5009236;28;20296;-60
2022/01/08 11:18:23;;;;;;;2.40;0.83;;;;;;;;;;5008328;28;20956;-60
2022/01/08 11:20:50;;;;;;;2.07;0.73;;;;;;;;;;5007787;28;20312;-60
2022/01/08 11:23:22;;;;;;;1.40;1.30;;;;;;;;;;5009275;28;20201;-61
2022/01/08 11:25:50;;;;;;;4.97;1.00;;;;;;;;;;4999730;28;20209;-61
2022/01/08 11:28:19;;;;;;;1.13;0.93;;;;;;;;;;5008965;28;20671;-61
2022/01/08 11:30:47;;;;;;;1.10;0.80;;;;;;;;;;5006096;28;20209;-61
2022/01/08 11:33:18;;;;;;;1.23;1.13;;;;;;;;;;5004819;28;20637;-59
2022/01/08 11:35:47;;;;;;;0.67;0.67;;;;;;;;;;5008963;28;20271;-58
2022/01/08 11:38:16;;;;;;;5.23;1.00;;;;;;;;;;5008736;28;20602;-60
2022/01/08 11:40:44;;;;;;;2.50;0.83;;;;;;;;;;5009093;28;20240;-61
2022/01/08 11:43:13;;;;;;;0.73;0.70;;;;;;;;;;5008675;28;20236;-60
2022/01/08 11:45:43;;;;;;;0.73;0.67;;;;;;;;;;5008855;28;20213;-60
2022/01/08 11:48:11;;;;;;;1.77;0.97;;;;;;;;;;5008444;28;20267;-61
2022/01/08 11:50:38;;;;;;;5.73;1.83;;;;;;;;;;5008140;28;20286;-60
2022/01/08 11:53:13;;;;;;;2.50;1.70;;;;;;;;;;4996075;28;20673;-60
2022/01/08 11:55:40;;;;;;;3.13;1.17;;;;;;;;;;5009002;28;20621;-60
2022/01/08 11:58:15;;;;;;;0.87;0.87;;;;;;;;;;5008522;28;20229;-61
2022/01/08 12:00:52;;;;;;;1.07;1.00;;;;;;;;;;5008499;28;20211;-61
2022/01/08 12:03:20;;;;;;;2.33;0.80;;;;;;;;;;5003442;28;20221;-60
2022/01/08 12:05:47;;;;;;;0.80;0.80;;;;;;;;;;5007055;28;20208;-61
2022/01/08 12:08:18;;;;;;;0.73;0.40;;;;;;;;;;5008817;28;20713;-60
2022/01/08 12:10:57;;;;;;;0.60;0.60;;;;;;;;;;5009096;28;20302;-60
2022/01/08 12:13:43;;;;;;;0.50;0.50;;;;;;;;;;4995868;28;20938;-60
2022/01/08 12:16:25;;;;;;;0.70;0.70;;;;;;;;;;5008559;28;20299;-61
2022/01/08 12:18:55;;;;;;;0.57;0.57;;;;;;;;;;5008530;28;20263;-60
2022/01/08 12:21:32;;;;;;;1.53;1.10;;;;;;;;;;5003105;28;20682;-60
2022/01/08 12:24:00;;;;;;;1.13;1.03;;;;;;;;;;5007318;28;20739;-62
2022/01/08 12:26:37;;;;;;;1.90;0.63;;;;;;;;;;5008946;28;20221;-61
2022/01/08 12:29:05;;;;;;;0.73;0.73;;;;;;;;;;5008664;28;20248;-60
2022/01/08 12:31:37;;;;;;;1.00;0.60;;;;;;;;;;5008386;28;20213;-61
2022/01/08 12:34:21;;;;;;;1.30;0.60;;;;;;;;;;5008174;28;20212;-61
2022/01/08 12:36:52;;;;;;;1.67;0.60;;;;;;;;;;5008712;28;20330;-61
2022/01/08 12:39:24;;;;;;;1.17;0.40;;;;;;;;;;5011347;28;20662;-61
2022/01/08 12:41:51;;;;;;;1.60;0.50;;;;;;;;;;5012575;28;20233;-61
2022/01/08 12:44:28;;;;;;;0.97;0.70;;;;;;;;;;5012311;28;20560;-63
2022/01/08 12:46:55;;;;;;;3.83;1.23;;;;;;;;;;5013175;28;20267;-62
2022/01/08 12:49:23;;;;;;;1.00;0.77;;;;;;;;;;4997991;28;20205;-62
2022/01/08 12:52:06;;;;;;;1.10;0.70;;;;;;;;;;5009228;28;20863;-59
2022/01/08 12:54:36;;;;;;;0.57;0.37;;;;;;;;;;5004332;28;20217;-60
2022/01/08 12:57:05;;;;;;;1.23;0.67;;;;;;;;;;5007545;28;20287;-59
2022/01/08 12:59:33;;;;;;;0.87;0.87;;;;;;;;;;5008832;28;20205;-60
2022/01/08 13:02:01;;;;;;;2.10;0.93;;;;;;;;;;5011627;28;20212;-61
2022/01/08 13:04:28;;;;;;;1.30;0.70;;;;;;;;;;5012157;28;20209;-60
2022/01/08 13:06:55;;;;;;;2.07;0.87;;;;;;;;;;5011968;28;20201;-60
2022/01/08 13:09:22;;;;;;;0.83;0.80;;;;;;;;;;5012344;28;20577;-61
2022/01/08 13:11:51;;;;;;;2.07;0.60;;;;;;;;;;5005101;28;20212;-59
2022/01/08 13:14:19;;;;;;;1.67;0.60;;;;;;;;;;5012233;28;20211;-59
2022/01/08 13:16:48;;;;;;;0.70;0.70;;;;;;;;;;5012401;28;20209;-60
2022/01/08 13:19:16;;;;;;;3.67;0.73;;;;;;;;;;5011902;28;20205;-62
2022/01/08 13:21:44;;;;;;;2.67;1.00;;;;;;;;;;5012368;28;20205;-59
2022/01/08 13:24:15;;;;;;;4.00;0.90;;;;;;;;;;5012364;28;20263;-59
2022/01/08 13:26:42;;;;;;;1.40;0.63;;;;;;;;;;5012168;28;20263;-59
2022/01/08 13:29:27;;;;;;;2.27;0.60;;;;;;;;;;5007527;28;20208;-60
2022/01/08 13:31:57;;;;;;;0.70;0.70;;;;;;;;;;5008581;28;20212;-60
2022/01/08 13:34:26;;;;;;;0.50;0.50;;;;;;;;;;5002126;28;20223;-60
2022/01/08 13:37:01;;;;;;;0.90;0.90;;;;;;;;;;5010374;28;20216;-61
2022/01/08 13:39:29;;;;;;;0.70;0.70;;;;;;;;;;5011823;28;20208;-59
2022/01/08 13:42:10;;;;;;;0.50;0.50;;;;;;;;;;5012297;28;20212;-61
2022/01/08 13:44:37;;;;;;;0.50;0.50;;;;;;;;;;5009558;28;20235;-60
2022/01/08 13:47:06;;;;;;;0.63;0.50;;;;;;;;;;5004787;28;20212;-62
2022/01/08 13:49:33;;;;;;;0.50;0.50;;;;;;;;;;5004390;28;20228;-62
2022/01/08 13:52:00;;;;;;;13.87;3.23;;;;;;;;;;5002938;28;20614;-60
2022/01/08 13:54:35;;;;;;;5.93;2.93;;;;;;;;;;5011369;28;20213;-60
2022/01/08 13:57:12;;;;;;;5.73;1.40;;;;;;;;;;5011814;28;20745;-60
2022/01/08 13:59:39;;;;;;;2.13;1.23;;;;;;;;;;5011512;28;20240;-60
2022/01/08 14:02:08;;;;;;;1.90;1.40;;;;;;;;;;5011378;28;20219;-60
2022/01/08 14:04:36;;;;;;;0.57;0.47;;;;;;;;;;5010346;28;20236;-63
2022/01/08 14:07:03;;;;;;;0.70;0.70;;;;;;;;;;5009714;28;20231;-61
2022/01/08 14:09:32;;;;;;;0.80;0.80;;;;;;;;;;4989509;28;20661;-64
2022/01/08 14:12:12;;;;;;;0.40;0.40;;;;;;;;;;5007009;28;20218;-60
2022/01/08 14:14:49;;;;;;;0.50;0.50;;;;;;;;;;5009929;28;20214;-61
2022/01/08 14:17:18;;;;;;;0.63;0.60;;;;;;;;;;5005013;28;20740;-61
2022/01/08 14:19:45;;;;;;;3.67;0.77;;;;;;;;;;4999411;28;20215;-59
2022/01/08 14:22:12;;;;;;;0.65;0.52;;;;;;;;;;5010096;28;20541;-62
2022/01/08 14:24:41;;;;;;;0.53;0.50;;;;;;;;;;5009829;28;20205;-61
2022/01/08 14:27:08;;;;;;;0.63;0.63;;;;;;;;;;5010052;28;20241;-60
2022/01/08 14:29:36;;;;;;;2.90;0.50;;;;;;;;;;5009193;28;20205;-60
2022/01/08 14:32:04;;;;;;;0.50;0.50;;;;;;;;;;5003890;28;20209;-60
2022/01/08 14:34:43;;;;;;;1.90;0.63;;;;;;;;;;5009359;28;20217;-59
2022/01/08 14:37:14;;;;;;;0.83;0.40;;;;;;;;;;5009908;28;20720;-61
2022/01/08 14:39:42;;;;;;;0.20;0.20;;;;;;;;;;5009721;28;20211;-61
2022/01/08 14:42:11;;;;;;;0.50;0.50;;;;;;;;;;5010234;28;20209;-63
2022/01/08 14:44:39;;;;;;;0.30;0.27;;;;;;;;;;5009260;28;20266;-62
2022/01/08 14:47:06;;;;;;;0.60;0.60;;;;;;;;;;4996467;28;20225;-62
2022/01/08 14:49:34;;;;;;;0.37;0.37;;;;;;;;;;4996715;28;20222;-61
2022/01/08 14:52:01;;;;;;;1.10;0.53;;;;;;;;;;4994926;28;20238;-70
2022/01/08 14:54:29;;;;;;;1.73;1.10;;;;;;;;;;5006238;28;20953;-65
2022/01/08 14:56:57;;;;;;;0.67;0.50;;;;;;;;;;4996998;28;20210;-65
2022/01/08 14:59:24;;;;;;;0.60;0.60;;;;;;;;;;4988785;28;20233;-70
2022/01/08 15:01:51;;;;;;;0.33;0.33;;;;;;;;;;4996971;28;20197;-65
2022/01/08 15:04:18;;;;;;;0.70;0.70;;;;;;;;;;5004796;28;20218;-64
2022/01/08 15:06:48;;;;;;;0.33;0.33;;;;;;;;;;4990419;28;20206;-66
2022/01/08 15:09:15;;;;;;;0.50;0.47;;;;;;;;;;5004414;28;20213;-61
2022/01/08 15:11:42;;;;;;;0.40;0.40;;;;;;;;;;5005040;28;20601;-64
2022/01/08 15:14:09;;;;;;;1.33;0.60;;;;;;;;;;5003337;28;20217;-62